Time;durP1;ratioP1;P1;durP2;ratioP2;P2;SDS_P1;SDS_P2;PMS_P1;PMS_P2;Temp;Humidity;BMP_temperature;BMP_pressure;BME280_temperature;BME280_humidity;BME280_pressure;Samples;Min_cycle;Max_cycle;Signal;HPM_P1;HPM_P2
2022/09/01 00:00:47;;;;;;;0.90;0.90;;;;;;;19.86;100.00;95150.66;5134875;27;20502;-60
2022/09/01 00:03:18;;;;;;;2.60;2.50;;;;;;;19.50;100.00;95150.53;5135413;27;20833;-60
2022/09/01 00:05:52;;;;;;;0.87;0.80;;;;;;;19.47;100.00;95143.13;5135419;27;20483;-60
2022/09/01 00:08:23;;;;;;;3.90;0.73;;;;;;;19.83;100.00;95121.78;5135470;27;20429;-60
2022/09/01 00:10:52;;;;;;;0.50;0.40;;;;;;;20.27;100.00;95139.81;5135678;27;20449;-60
2022/09/01 00:13:20;;;;;;;0.60;0.40;;;;;;;20.35;100.00;95146.22;5135309;27;20447;-60
2022/09/01 00:15:49;;;;;;;1.53;0.80;;;;;;;20.57;100.00;95132.31;5135235;27;20474;-60
2022/09/01 00:18:17;;;;;;;0.40;0.30;;;;;;;20.64;100.00;95134.47;5135613;27;20422;-60
2022/09/01 00:20:46;;;;;;;0.60;0.50;;;;;;;20.67;100.00;95136.50;5135066;27;21165;-59
2022/09/01 00:23:14;;;;;;;0.50;0.30;;;;;;;20.33;100.00;95140.41;5135125;27;20451;-59
2022/09/01 00:25:44;;;;;;;0.60;0.53;;;;;;;20.19;100.00;95148.75;5135136;27;20445;-59
2022/09/01 00:28:14;;;;;;;0.60;0.60;;;;;;;20.14;100.00;95145.47;5135254;27;20485;-59
2022/09/01 00:30:43;;;;;;;0.60;0.60;;;;;;;19.93;100.00;95137.50;5135061;27;20502;-60
2022/09/01 00:33:11;;;;;;;0.50;0.40;;;;;;;19.61;100.00;95111.38;5134908;27;20434;-59
2022/09/01 00:35:41;;;;;;;0.70;0.70;;;;;;;19.90;100.00;95135.47;5134852;27;20426;-60
2022/09/01 00:38:10;;;;;;;0.40;0.30;;;;;;;20.08;100.00;95126.09;5135068;27;20423;-59
2022/09/01 00:40:38;;;;;;;0.83;0.83;;;;;;;20.29;100.00;95131.41;5134765;27;20923;-59
2022/09/01 00:43:18;;;;;;;1.33;0.40;;;;;;;20.11;100.00;95136.16;5134958;27;20436;-59
2022/09/01 00:45:47;;;;;;;0.50;0.40;;;;;;;19.74;100.00;95136.41;5134949;27;20430;-60
2022/09/01 00:48:15;;;;;;;0.60;0.50;;;;;;;19.97;100.00;95126.81;5134507;27;20462;-59
2022/09/01 00:50:44;;;;;;;2.00;1.13;;;;;;;20.12;100.00;95120.81;5134947;27;20415;-60
2022/09/01 00:53:18;;;;;;;0.60;0.50;;;;;;;19.98;100.00;95126.50;5134600;27;20447;-60
2022/09/01 00:55:46;;;;;;;0.63;0.63;;;;;;;19.98;100.00;95131.09;5134785;27;20485;-59
2022/09/01 00:58:16;;;;;;;0.77;0.70;;;;;;;19.98;100.00;95123.81;5134358;27;20431;-60
2022/09/01 01:00:50;;;;;;;0.40;0.30;;;;;;;19.99;100.00;95121.91;5134415;27;20945;-59
2022/09/01 01:03:19;;;;;;;0.50;0.30;;;;;;;19.77;100.00;95123.09;5134699;27;20829;-59
2022/09/01 01:05:53;;;;;;;0.70;0.70;;;;;;;19.47;100.00;95127.00;5134530;27;20523;-59
2022/09/01 01:08:32;;;;;;;1.13;1.03;;;;;;;19.36;100.00;95121.22;5134292;27;20517;-59
2022/09/01 01:11:02;;;;;;;0.50;0.43;;;;;;;19.69;100.00;95118.56;5134165;27;20445;-60
2022/09/01 01:13:35;;;;;;;1.07;1.07;;;;;;;19.63;100.00;95127.97;5134027;27;20434;-60
2022/09/01 01:16:14;;;;;;;2.87;0.77;;;;;;;19.79;100.00;95112.78;5134413;27;20442;-60
2022/09/01 01:18:43;;;;;;;0.50;0.30;;;;;;;19.76;100.00;95115.34;5134086;27;20484;-60
2022/09/01 01:24:09;;;;;;;0.77;0.77;;;;;;;19.17;100.00;95115.53;5133807;27;20553;-60
2022/09/01 01:26:39;;;;;;;1.27;1.27;;;;;;;18.80;100.00;95105.66;5133810;27;20457;-60
2022/09/01 01:29:08;;;;;;;1.00;1.00;;;;;;;18.46;100.00;95108.50;5133761;27;20518;-60
2022/09/01 01:31:37;;;;;;;1.37;0.50;;;;;;;18.24;100.00;95109.56;5133594;27;20434;-60
2022/09/01 01:34:06;;;;;;;0.60;0.57;;;;;;;18.42;100.00;95091.50;5132890;27;20478;-60
2022/09/01 01:36:37;;;;;;;2.90;1.60;;;;;;;18.70;100.00;95117.56;5133662;27;20490;-60
2022/09/01 01:39:09;;;;;;;1.23;1.03;;;;;;;19.15;100.00;95125.78;5133936;27;20488;-60
2022/09/01 01:41:43;;;;;;;4.10;0.73;;;;;;;19.43;100.00;95128.78;5133524;27;20455;-60
2022/09/01 01:44:14;;;;;;;0.57;0.40;;;;;;;19.62;100.00;95123.72;5133431;27;20979;-60
2022/09/01 01:46:44;;;;;;;0.63;0.50;;;;;;;19.81;100.00;95121.28;5133482;27;20418;-60
2022/09/01 01:49:18;;;;;;;0.97;0.57;;;;;;;19.61;100.00;95122.91;5133145;27;20517;-60
2022/09/01 01:51:48;;;;;;;0.60;0.37;;;;;;;19.35;100.00;95129.59;5132949;27;20458;-60
2022/09/01 01:54:18;;;;;;;0.50;0.30;;;;;;;19.72;100.00;95127.88;5133286;27;20500;-60
2022/09/01 01:56:48;;;;;;;1.83;1.60;;;;;;;19.74;100.00;95131.81;5133246;27;20861;-60
2022/09/01 01:59:18;;;;;;;0.53;0.50;;;;;;;19.64;100.00;95140.28;5133297;27;20461;-60
2022/09/01 02:01:50;;;;;;;1.10;0.77;;;;;;;19.14;100.00;95118.06;5133215;27;20426;-60
2022/09/01 02:04:20;;;;;;;0.50;0.43;;;;;;;19.31;100.00;95128.69;5133037;27;20470;-60
2022/09/01 02:06:50;;;;;;;0.90;0.90;;;;;;;19.10;100.00;95131.34;5133081;27;20466;-60
2022/09/01 02:09:22;;;;;;;0.90;0.90;;;;;;;19.32;100.00;95117.63;5133430;27;20505;-60
2022/09/01 02:11:57;;;;;;;0.60;0.60;;;;;;;19.45;100.00;95137.31;5133162;27;20510;-60
2022/09/01 02:14:25;;;;;;;0.50;0.50;;;;;;;19.53;100.00;95131.06;5133035;27;20488;-60
2022/09/01 02:16:54;;;;;;;1.70;1.60;;;;;;;19.65;100.00;95131.13;5132906;27;20473;-60
2022/09/01 02:19:23;;;;;;;0.50;0.30;;;;;;;19.77;100.00;95136.53;5132923;27;20521;-60
2022/09/01 02:21:55;;;;;;;1.07;1.07;;;;;;;19.49;100.00;95143.59;5133222;27;20458;-60
2022/09/01 02:24:25;;;;;;;0.50;0.43;;;;;;;19.08;100.00;95136.28;5132683;27;20426;-60
2022/09/01 02:26:57;;;;;;;0.50;0.50;;;;;;;19.15;100.00;95144.59;5133074;27;20422;-60
2022/09/01 02:29:25;;;;;;;1.13;0.90;;;;;;;19.46;100.00;95142.34;5133137;27;20426;-60
2022/09/01 02:31:56;;;;;;;0.67;0.60;;;;;;;19.38;100.00;95153.94;5132808;27;20442;-60
2022/09/01 02:34:27;;;;;;;0.60;0.50;;;;;;;19.33;100.00;95147.94;5132595;28;20470;-59
2022/09/01 02:36:57;;;;;;;1.13;1.10;;;;;;;19.52;100.00;95143.72;5132804;28;20423;-60
2022/09/01 02:39:28;;;;;;;1.33;0.83;;;;;;;19.58;100.00;95149.69;5132799;27;20423;-59
2022/09/01 02:42:00;;;;;;;0.60;0.40;;;;;;;19.50;100.00;95155.91;5132758;27;20458;-60
2022/09/01 02:44:30;;;;;;;1.07;0.83;;;;;;;19.27;100.00;95146.59;5132653;27;20433;-59
2022/09/01 02:47:00;;;;;;;3.13;0.93;;;;;;;19.34;100.00;95128.81;5135408;27;20939;-60
2022/09/01 02:49:29;;;;;;;0.90;0.50;;;;;;;19.50;100.00;95132.53;5136887;27;20988;-60
2022/09/01 02:52:01;;;;;;;0.70;0.40;;;;;;;19.57;100.00;95137.34;5136996;27;20505;-60
2022/09/01 02:54:31;;;;;;;0.60;0.40;;;;;;;19.60;100.00;95142.88;5137185;27;20453;-60
2022/09/01 02:57:02;;;;;;;2.00;1.90;;;;;;;18.99;100.00;95146.31;5136825;27;20420;-60
2022/09/01 02:59:33;;;;;;;0.53;0.50;;;;;;;19.21;100.00;95139.81;5136686;27;20429;-60
2022/09/01 03:02:01;;;;;;;1.10;1.00;;;;;;;19.08;100.00;95119.38;5136654;27;20505;-60
2022/09/01 03:04:33;;;;;;;0.40;0.30;;;;;;;19.39;100.00;95142.09;5136830;27;20457;-60
2022/09/01 03:07:03;;;;;;;0.87;0.87;;;;;;;19.44;100.00;95138.41;5136946;27;20426;-60
2022/09/01 03:09:32;;;;;;;0.60;0.50;;;;;;;19.19;100.00;95134.00;5136703;27;20427;-60
2022/09/01 03:12:03;;;;;;;0.60;0.60;;;;;;;19.37;100.00;95132.78;5136567;27;20418;-60
2022/09/01 03:14:31;;;;;;;0.60;0.60;;;;;;;19.36;100.00;95141.91;5136236;27;20457;-59
2022/09/01 03:17:00;;;;;;;0.70;0.70;;;;;;;19.36;100.00;95144.59;5136384;27;20478;-60
2022/09/01 03:19:39;;;;;;;1.57;0.80;;;;;;;19.28;100.00;95140.06;5136314;27;20432;-59
2022/09/01 03:22:07;;;;;;;0.50;0.47;;;;;;;19.26;100.00;95145.78;5136291;27;20895;-60
2022/09/01 03:24:36;;;;;;;0.90;0.90;;;;;;;19.41;100.00;95147.13;5136232;27;20450;-59
2022/09/01 03:29:52;;;;;;;0.60;0.30;;;;;;;19.37;100.00;95154.28;5135969;27;20521;-60
2022/09/01 03:32:20;;;;;;;0.50;0.30;;;;;;;19.10;100.00;95150.16;5136045;27;20517;-60
2022/09/01 03:34:50;;;;;;;1.53;1.43;;;;;;;19.29;100.00;95163.16;5135880;27;20562;-60
2022/09/01 03:37:19;;;;;;;0.90;0.60;;;;;;;19.37;100.00;95160.44;5135951;27;20450;-59
2022/09/01 03:39:48;;;;;;;1.17;0.70;;;;;;;19.35;100.00;95156.47;5135921;27;20435;-60
2022/09/01 03:42:24;;;;;;;0.77;0.67;;;;;;;19.30;100.00;95159.38;5135909;27;20898;-60
2022/09/01 03:44:55;;;;;;;1.70;0.70;;;;;;;19.26;100.00;95164.59;5135631;27;20525;-59
2022/09/01 03:47:24;;;;;;;0.53;0.53;;;;;;;19.30;100.00;95167.44;5136101;27;20447;-60
2022/09/01 03:49:54;;;;;;;0.50;0.47;;;;;;;19.34;100.00;95171.03;5135755;27;20473;-60
2022/09/01 03:52:26;;;;;;;1.47;1.37;;;;;;;18.64;100.00;95171.78;5136014;27;20832;-60
2022/09/01 03:54:55;;;;;;;0.70;0.57;;;;;;;18.50;100.00;95171.97;5135667;27;20419;-60
2022/09/01 03:57:25;;;;;;;1.27;1.23;;;;;;;18.73;100.00;95177.88;5134993;27;20487;-60
2022/09/01 03:59:59;;;;;;;1.10;1.00;;;;;;;18.92;100.00;95175.56;5135476;27;20430;-60
2022/09/01 04:02:29;;;;;;;0.50;0.40;;;;;;;19.05;100.00;95169.16;5135545;27;20814;-60
2022/09/01 04:04:59;;;;;;;0.53;0.47;;;;;;;19.23;100.00;95172.50;5135497;27;20445;-60
2022/09/01 04:07:32;;;;;;;2.87;0.73;;;;;;;18.76;100.00;95185.28;5135589;27;20418;-60
2022/09/01 04:10:00;;;;;;;0.50;0.50;;;;;;;18.63;100.00;95178.25;5135433;27;20427;-60
2022/09/01 04:12:30;;;;;;;1.53;0.40;;;;;;;18.72;100.00;95181.69;5135448;27;20456;-59
2022/09/01 04:15:00;;;;;;;0.63;0.63;;;;;;;18.79;100.00;95190.81;5135377;27;20430;-60
2022/09/01 04:20:18;;;;;;;0.50;0.50;;;;;;;18.28;100.00;95193.66;5135568;27;20795;-60
2022/09/01 04:22:49;;;;;;;0.80;0.77;;;;;;;18.60;100.00;95195.78;5135493;27;20477;-59
2022/09/01 04:25:21;;;;;;;0.50;0.30;;;;;;;18.73;100.00;95194.78;5134960;27;20458;-60
2022/09/01 04:27:54;;;;;;;0.50;0.50;;;;;;;18.96;100.00;95192.59;5135099;27;20911;-59
2022/09/01 04:30:23;;;;;;;0.50;0.40;;;;;;;18.86;100.00;95203.72;5135300;27;20460;-59
2022/09/01 04:32:54;;;;;;;0.40;0.30;;;;;;;18.77;100.00;95170.75;5135269;27;20454;-59
2022/09/01 04:35:31;;;;;;;0.50;0.30;;;;;;;19.01;100.00;95190.53;5134739;27;20526;-60
2022/09/01 04:38:07;;;;;;;1.03;0.93;;;;;;;19.23;100.00;95191.31;5134993;27;20422;-59
2022/09/01 04:40:38;;;;;;;0.60;0.40;;;;;;;19.23;100.00;95184.06;5135199;27;20458;-59
2022/09/01 04:43:10;;;;;;;0.40;0.27;;;;;;;19.25;100.00;95183.75;5134757;27;20944;-59
2022/09/01 04:45:39;;;;;;;1.07;0.97;;;;;;;19.31;100.00;95199.34;5134675;27;20989;-59
2022/09/01 04:48:08;;;;;;;0.70;0.70;;;;;;;19.37;100.00;95198.06;5134830;27;20452;-59
2022/09/01 04:50:38;;;;;;;0.60;0.60;;;;;;;19.42;100.00;95191.72;5134641;27;20938;-59
2022/09/01 04:53:10;;;;;;;0.80;0.77;;;;;;;19.27;100.00;95166.19;5134989;27;20454;-59
2022/09/01 04:55:42;;;;;;;0.50;0.30;;;;;;;19.36;100.00;95183.03;5134500;27;20437;-58
2022/09/01 04:58:16;;;;;;;0.60;0.60;;;;;;;19.20;100.00;95186.63;5134680;27;20846;-59
2022/09/01 05:00:48;;;;;;;0.50;0.40;;;;;;;19.49;100.00;95198.13;5134204;27;20459;-59
2022/09/01 05:03:20;;;;;;;1.23;0.33;;;;;;;19.77;100.00;95184.16;5134270;27;20422;-59
2022/09/01 05:05:48;;;;;;;0.63;0.50;;;;;;;19.98;100.00;95187.59;5134025;27;20426;-59
2022/09/01 05:08:19;;;;;;;0.87;0.87;;;;;;;19.72;100.00;95184.34;5133580;27;20453;-59
2022/09/01 05:10:54;;;;;;;0.70;0.50;;;;;;;19.67;100.00;95182.66;5134538;27;20848;-60
2022/09/01 05:13:26;;;;;;;0.50;0.40;;;;;;;19.89;100.00;95187.66;5134162;27;20422;-59
2022/09/01 05:16:02;;;;;;;0.50;0.30;;;;;;;19.85;100.00;95167.94;5134090;27;20473;-59
2022/09/01 05:18:31;;;;;;;0.60;0.60;;;;;;;19.55;100.00;95179.91;5133738;27;20430;-59
2022/09/01 05:21:08;;;;;;;1.13;1.13;;;;;;;19.54;100.00;95181.00;5133806;27;20452;-59
2022/09/01 05:23:39;;;;;;;1.07;0.97;;;;;;;20.07;100.00;95175.63;5134168;27;20414;-60
2022/09/01 05:26:15;;;;;;;0.83;0.83;;;;;;;19.96;100.00;95144.88;5133797;27;20515;-60
2022/09/01 05:28:46;;;;;;;0.47;0.30;;;;;;;20.44;100.00;95173.81;5133813;27;20938;-59
2022/09/01 05:31:18;;;;;;;0.50;0.33;;;;;;;20.75;100.00;95174.09;5133637;27;20529;-60
2022/09/01 05:33:49;;;;;;;2.77;0.73;;;;;;;20.89;100.00;95171.06;5132113;27;20977;-60
2022/09/01 05:36:20;;;;;;;0.50;0.30;;;;;;;20.76;100.00;95166.78;5133768;27;20438;-60
2022/09/01 05:38:49;;;;;;;0.60;0.40;;;;;;;20.87;100.00;95163.28;5133699;27;20488;-60
2022/09/01 05:41:20;;;;;;;0.60;0.60;;;;;;;20.93;100.00;95163.84;5133461;27;20415;-60
2022/09/01 05:43:51;;;;;;;1.03;0.60;;;;;;;20.83;100.00;95161.63;5133812;27;20433;-61
2022/09/01 05:46:27;;;;;;;0.77;0.77;;;;;;;20.47;100.00;95164.28;5133214;27;20472;-61
2022/09/01 05:48:57;;;;;;;1.67;0.70;;;;;;;20.85;100.00;95157.47;5133895;27;20866;-61
2022/09/01 05:51:28;;;;;;;0.50;0.50;;;;;;;21.21;100.00;95161.28;5133391;27;20498;-61
2022/09/01 05:54:17;;;;;;;0.50;0.50;;;;;;;21.77;100.00;95164.81;5133234;27;20438;-61
2022/09/01 05:56:46;;;;;;;0.67;0.50;;;;;;;21.98;100.00;95165.44;5133111;27;20517;-60
2022/09/01 05:59:19;;;;;;;0.80;0.80;;;;;;;22.17;100.00;95160.16;5133388;27;20497;-59
2022/09/01 06:01:53;;;;;;;0.60;0.50;;;;;;;22.71;100.00;95160.41;5133024;27;20810;-58
2022/09/01 06:04:23;;;;;;;0.67;0.67;;;;;;;23.08;100.00;95158.97;5133674;27;20429;-58
2022/09/01 06:06:53;;;;;;;0.67;0.67;;;;;;;22.91;97.43;95155.84;5133371;27;20490;-58
2022/09/01 06:09:38;;;;;;;1.07;0.50;;;;;;;23.50;96.63;95145.63;5133077;27;20992;-57
2022/09/01 06:12:12;;;;;;;1.83;0.70;;;;;;;23.36;92.89;95150.72;5133035;27;20522;-58
2022/09/01 06:14:42;;;;;;;0.90;0.63;;;;;;;23.48;98.74;95147.13;5132956;27;20434;-58
2022/09/01 06:17:15;;;;;;;0.63;0.63;;;;;;;23.36;100.00;95159.63;5133298;27;20449;-57
2022/09/01 06:19:44;;;;;;;1.23;1.13;;;;;;;22.73;100.00;95112.22;5133106;27;20454;-57
2022/09/01 06:22:12;;;;;;;1.10;1.07;;;;;;;23.24;100.00;95153.53;5133259;27;20513;-57
2022/09/01 06:24:41;;;;;;;1.03;1.03;;;;;;;23.32;100.00;95152.56;5132913;27;20961;-57
2022/09/01 06:27:13;;;;;;;17.10;2.03;;;;;;;22.88;100.00;95153.84;5132243;27;20462;-57
2022/09/01 06:29:44;;;;;;;2.23;1.00;;;;;;;23.41;100.00;95146.97;5133083;27;20505;-57
2022/09/01 06:32:12;;;;;;;1.90;1.30;;;;;;;23.98;100.00;95155.09;5133186;27;20477;-57
2022/09/01 06:34:43;;;;;;;4.07;1.60;;;;;;;23.36;100.00;95158.84;5132753;28;20513;-57
2022/09/01 06:37:14;;;;;;;1.30;1.20;;;;;;;23.78;100.00;95142.72;5132830;27;20509;-56
2022/09/01 06:39:42;;;;;;;1.90;1.57;;;;;;;24.19;99.90;95149.31;5132810;28;20461;-56
2022/09/01 06:42:11;;;;;;;2.27;1.77;;;;;;;24.60;96.38;95141.16;5132792;28;20458;-56
2022/09/01 06:44:40;;;;;;;1.73;1.63;;;;;;;24.95;90.30;95132.81;5132722;28;20427;-56
2022/09/01 06:47:09;;;;;;;0.70;0.70;;;;;;;24.93;87.47;95137.84;5132964;28;20550;-56
2022/09/01 06:49:39;;;;;;;1.20;1.10;;;;;;;24.78;86.05;95133.34;5132961;28;20516;-57
2022/09/01 06:52:08;;;;;;;0.50;0.50;;;;;;;25.04;87.29;95138.78;5132835;27;20434;-57
2022/09/01 06:54:38;;;;;;;0.73;0.73;;;;;;;24.82;88.60;95139.59;5132662;27;20484;-57
2022/09/01 06:57:07;;;;;;;9.30;0.97;;;;;;;24.66;89.07;95141.63;5132613;27;20936;-57
2022/09/01 06:59:55;;;;;;;0.57;0.57;;;;;;;25.18;86.52;95138.97;5132411;28;20434;-58
2022/09/01 07:02:25;;;;;;;1.83;1.37;;;;;;;25.91;84.64;95140.31;5132426;28;20514;-51
2022/09/01 07:04:54;;;;;;;1.10;1.10;;;;;;;26.31;81.87;95145.06;5132446;28;20427;-51
2022/09/01 07:07:23;;;;;;;2.27;2.17;;;;;;;26.03;85.87;95136.59;5132536;28;20469;-52
2022/09/01 07:10:13;;;;;;;1.33;1.20;;;;;;;26.56;82.99;95131.72;5132251;27;20464;-51
2022/09/01 07:12:50;;;;;;;2.47;2.20;;;;;;;26.26;77.26;95135.31;5132528;28;20446;-51
2022/09/01 07:15:39;;;;;;;2.40;1.83;;;;;;;26.34;79.92;95136.94;5132102;28;20450;-51
2022/09/01 07:18:30;;;;;;;0.80;0.80;;;;;;;26.50;75.86;95123.13;5132386;28;20438;-51
2022/09/01 07:21:01;;;;;;;2.60;1.30;;;;;;;26.93;73.50;95122.34;5132753;28;20853;-51
2022/09/01 07:23:50;;;;;;;0.80;0.60;;;;;;;27.94;68.17;95112.38;5132396;28;20816;-51
2022/09/01 07:26:38;;;;;;;1.67;1.57;;;;;;;27.80;70.66;95117.00;5132376;28;20488;-51
2022/09/01 07:29:14;;;;;;;0.77;0.77;;;;;;;28.46;63.87;95110.97;5132276;28;20476;-51
2022/09/01 07:31:43;;;;;;;0.90;0.80;;;;;;;28.16;61.97;95113.22;5132784;27;20431;-51
2022/09/01 07:34:34;;;;;;;0.63;0.63;;;;;;;28.59;61.33;95103.19;5135807;27;20456;-51
2022/09/01 07:37:07;;;;;;;2.30;0.47;;;;;;;28.74;61.18;95108.25;5136175;27;20436;-51
2022/09/01 07:39:55;;;;;;;2.13;1.97;;;;;;;28.63;59.69;95096.59;5135863;27;20463;-51
2022/09/01 07:42:25;;;;;;;0.60;0.60;;;;;;;29.55;57.60;95107.38;5136321;27;20482;-51
2022/09/01 07:45:16;;;;;;;2.43;0.93;;;;;;;30.23;52.00;95088.75;5135860;27;20450;-51
2022/09/01 07:48:01;;;;;;;0.77;0.60;;;;;;;30.00;52.70;95111.13;5135924;27;20575;-50
2022/09/01 07:50:32;;;;;;;0.70;0.70;;;;;;;29.29;56.49;95111.38;5136255;27;20900;-50
2022/09/01 07:53:23;;;;;;;1.37;1.37;;;;;;;29.75;53.39;95108.50;5135659;27;20438;-50
2022/09/01 07:55:53;;;;;;;1.00;1.00;;;;;;;29.98;48.54;95103.31;5136093;27;20845;-49
2022/09/01 07:58:24;;;;;;;1.27;1.17;;;;;;;29.71;52.00;95102.25;5135619;27;20519;-49
2022/09/01 08:00:54;;;;;;;1.43;1.30;;;;;;;30.27;49.59;95106.69;5136095;27;20824;-50
2022/09/01 08:03:25;;;;;;;3.23;1.10;;;;;;;30.27;47.52;95100.44;5135458;27;20998;-49
2022/09/01 08:05:59;;;;;;;0.60;0.60;;;;;;;30.90;47.57;95107.41;5135516;27;20463;-49
2022/09/01 08:08:28;;;;;;;1.17;1.07;;;;;;;29.96;47.22;95108.41;5135497;27;20558;-49
2022/09/01 08:10:57;;;;;;;1.27;1.17;;;;;;;29.60;48.02;95101.50;5135904;27;20454;-49
2022/09/01 08:13:34;;;;;;;0.80;0.80;;;;;;;30.53;49.54;95105.38;5135631;27;20521;-49
2022/09/01 08:16:10;;;;;;;2.80;0.67;;;;;;;31.07;47.60;95103.78;5135758;27;20426;-49
2022/09/01 08:18:47;;;;;;;1.43;1.33;;;;;;;31.17;44.17;95100.19;5135324;27;20876;-49
2022/09/01 08:21:20;;;;;;;1.20;1.10;;;;;;;30.49;48.50;95096.41;5135390;27;20842;-49
2022/09/01 08:23:50;;;;;;;1.00;0.63;;;;;;;31.42;44.58;95092.47;5135287;27;20465;-50
2022/09/01 08:26:20;;;;;;;0.80;0.80;;;;;;;32.03;41.66;95092.59;5135531;27;20422;-49
2022/09/01 08:28:49;;;;;;;0.40;0.40;;;;;;;32.01;40.48;95091.00;5134904;27;20505;-49
2022/09/01 08:31:26;;;;;;;0.97;0.97;;;;;;;31.61;41.74;95091.09;5135098;27;20422;-50
2022/09/01 08:33:58;;;;;;;0.60;0.50;;;;;;;31.62;40.27;95018.69;5134888;27;20473;-49
2022/09/01 08:36:29;;;;;;;1.00;0.90;;;;;;;31.79;37.28;95089.72;5135251;27;20438;-49
2022/09/01 08:38:58;;;;;;;0.67;0.60;;;;;;;32.27;37.71;95075.78;5135059;27;20538;-50
2022/09/01 08:41:41;;;;;;;2.27;2.17;;;;;;;31.92;36.13;95073.50;5134872;27;20469;-50
2022/09/01 08:44:25;;;;;;;0.73;0.73;;;;;;;32.43;34.98;95070.44;5134872;27;20434;-49
2022/09/01 08:47:00;;;;;;;0.87;0.73;;;;;;;32.53;35.79;95069.53;5134932;27;20513;-49
2022/09/01 08:49:29;;;;;;;0.50;0.50;;;;;;;33.27;35.15;95058.50;5134814;27;20504;-49
2022/09/01 08:52:07;;;;;;;8.60;1.20;;;;;;;32.62;35.63;95060.75;5134736;27;20426;-50
2022/09/01 08:54:44;;;;;;;0.47;0.43;;;;;;;33.60;35.21;95055.50;5134720;27;20419;-49
2022/09/01 08:57:19;;;;;;;0.87;0.87;;;;;;;31.95;35.29;95050.75;5134461;27;20434;-49
2022/09/01 08:59:48;;;;;;;0.60;0.40;;;;;;;32.23;35.77;95044.88;5134505;27;20909;-49
2022/09/01 09:02:33;;;;;;;0.70;0.50;;;;;;;32.90;33.14;95043.03;5134368;27;20460;-49
2022/09/01 09:05:07;;;;;;;3.53;0.73;;;;;;;33.23;33.78;95031.06;5134309;27;20473;-50
2022/09/01 09:08:10;;;;;;;1.43;0.70;;;;;;;32.93;35.27;95039.47;5134112;27;20440;-49
2022/09/01 09:10:46;;;;;;;1.57;1.47;;;;;;;33.01;33.20;95040.88;5134192;27;21004;-49
2022/09/01 09:13:23;;;;;;;3.40;0.63;;;;;;;33.86;32.67;95021.56;5134029;27;20513;-49
2022/09/01 09:15:54;;;;;;;1.00;0.77;;;;;;;34.03;33.08;95022.38;5134125;27;20423;-49
2022/09/01 09:18:40;;;;;;;0.77;0.77;;;;;;;34.77;30.92;95017.91;5134082;27;20513;-49
2022/09/01 09:21:26;;;;;;;1.00;0.80;;;;;;;35.11;30.36;95017.44;5134187;27;20462;-49
2022/09/01 09:24:04;;;;;;;0.87;0.50;;;;;;;34.92;30.34;95015.53;5134341;27;20867;-49
2022/09/01 09:26:32;;;;;;;0.90;0.67;;;;;;;35.76;29.32;95014.47;5133976;27;20638;-49
2022/09/01 09:29:16;;;;;;;3.47;0.67;;;;;;;35.91;30.07;95008.09;5134007;27;20217;-49
2022/09/01 09:31:47;;;;;;;0.53;0.53;;;;;;;36.56;29.31;95004.94;5133836;27;20425;-53
2022/09/01 09:34:31;;;;;;;0.97;0.97;;;;;;;36.16;29.41;95005.38;5133352;27;20238;-53
2022/09/01 09:37:15;;;;;;;0.60;0.60;;;;;;;35.56;31.03;95009.13;5133920;27;20187;-53
2022/09/01 09:39:45;;;;;;;0.67;0.67;;;;;;;35.36;30.53;94994.72;5133702;27;20232;-53
2022/09/01 09:42:14;;;;;;;0.70;0.57;;;;;;;34.75;30.73;95008.53;5133780;27;20221;-53
2022/09/01 09:44:49;;;;;;;0.70;0.60;;;;;;;34.49;32.79;95002.84;5134010;27;20259;-53
2022/09/01 09:47:37;;;;;;;1.20;1.10;;;;;;;35.82;31.09;94996.16;5133378;27;20601;-53
2022/09/01 09:50:18;;;;;;;0.70;0.70;;;;;;;34.66;32.11;94995.34;5133827;27;20220;-53
2022/09/01 09:52:48;;;;;;;2.63;0.60;;;;;;;35.89;30.89;94982.16;5133861;27;20217;-53
2022/09/01 09:55:27;;;;;;;3.10;0.40;;;;;;;37.20;29.11;94981.44;5133048;27;20236;-53
2022/09/01 09:57:59;;;;;;;1.00;0.90;;;;;;;35.90;30.21;94978.19;5133950;27;20182;-53
2022/09/01 10:00:31;;;;;;;0.90;0.90;;;;;;;35.75;31.06;94986.09;5133448;27;20274;-54
2022/09/01 10:03:02;;;;;;;0.68;0.68;;;;;;;36.16;32.16;94972.25;5133417;27;20187;-53
2022/09/01 10:05:47;;;;;;;1.27;1.17;;;;;;;35.90;31.50;94975.44;5133582;27;20573;-53
2022/09/01 10:08:43;;;;;;;2.17;0.85;;;;;;;36.12;31.48;94974.38;5133539;27;20244;-53
2022/09/01 10:11:31;;;;;;;0.50;0.40;;;;;;;37.02;29.94;94965.50;5133312;27;20278;-53
2022/09/01 10:14:07;;;;;;;1.25;0.88;;;;;;;35.35;33.87;94963.63;5133495;27;20283;-53
2022/09/01 10:16:41;;;;;;;1.30;1.23;;;;;;;35.38;32.80;94965.50;5133388;27;20214;-54
2022/09/01 10:19:13;;;;;;;1.30;1.20;;;;;;;35.49;32.50;94943.16;5133139;27;20647;-54
2022/09/01 10:21:45;;;;;;;0.98;0.98;;;;;;;35.90;34.67;94967.91;5133133;27;20191;-54
2022/09/01 10:24:24;;;;;;;0.85;0.68;;;;;;;35.57;32.90;94963.81;5133343;27;20188;-54
2022/09/01 10:27:01;;;;;;;1.77;0.77;;;;;;;34.46;33.75;94973.41;5133050;27;20191;-55
2022/09/01 10:29:34;;;;;;;0.87;0.53;;;;;;;33.79;35.48;94965.97;5132914;27;20210;-55
2022/09/01 10:32:20;;;;;;;0.70;0.70;;;;;;;32.42;39.05;94958.38;5132593;27;20186;-55
2022/09/01 10:35:06;;;;;;;0.40;0.40;;;;;;;32.42;38.83;94961.88;5132697;27;20236;-55
2022/09/01 10:37:35;;;;;;;1.83;1.73;;;;;;;32.77;39.03;94949.53;5133061;27;20233;-55
2022/09/01 10:40:14;;;;;;;1.17;1.13;;;;;;;34.07;36.72;94945.31;5132870;28;20436;-55
2022/09/01 10:42:54;;;;;;;2.60;0.93;;;;;;;34.50;34.74;94954.06;5133216;28;20272;-53
2022/09/01 10:45:34;;;;;;;1.27;1.27;;;;;;;35.38;33.88;94948.97;5132775;28;20234;-54
2022/09/01 10:48:27;;;;;;;1.60;0.80;;;;;;;36.08;32.86;94940.59;5132987;27;20615;-53
2022/09/01 10:51:39;;;;;;;0.80;0.80;;;;;;;35.72;33.25;94942.09;5132823;28;20221;-54
2022/09/01 10:54:51;;;;;;;0.40;0.30;;;;;;;37.10;31.25;94928.09;5132859;28;20183;-53
2022/09/01 10:57:45;;;;;;;15.63;0.90;;;;;;;35.86;31.01;94834.88;5132830;28;20281;-54
2022/09/01 11:01:01;;;;;;;5.27;0.80;;;;;;;35.12;34.01;94935.56;5132766;28;20211;-54
2022/09/01 11:03:56;;;;;;;3.70;0.50;;;;;;;33.84;36.02;94926.97;5132588;28;20194;-54
2022/09/01 11:07:04;;;;;;;0.40;0.40;;;;;;;33.74;37.73;94939.75;5132680;27;20239;-55
2022/09/01 11:09:42;;;;;;;0.73;0.73;;;;;;;32.78;38.95;94936.59;5136620;27;20299;-55
2022/09/01 11:12:44;;;;;;;1.33;1.23;;;;;;;33.08;38.90;94926.22;5137087;27;20455;-55
2022/09/01 11:15:38;;;;;;;0.63;0.40;;;;;;;34.43;35.96;94924.72;5136575;27;20464;-55
2022/09/01 11:18:14;;;;;;;0.70;0.70;;;;;;;34.76;35.26;94933.72;5137048;27;20515;-54
2022/09/01 11:20:47;;;;;;;0.70;0.70;;;;;;;35.70;34.51;94921.25;5136776;27;20422;-54
2022/09/01 11:23:25;;;;;;;0.80;0.77;;;;;;;36.12;33.59;94919.19;5136525;27;20189;-53
2022/09/01 11:25:56;;;;;;;0.60;0.50;;;;;;;36.81;31.42;94914.47;5136460;27;20197;-54
2022/09/01 11:28:44;;;;;;;0.47;0.47;;;;;;;37.32;31.43;94905.97;5136292;27;20206;-54
2022/09/01 11:31:27;;;;;;;0.50;0.43;;;;;;;37.36;30.26;94901.88;5136413;27;20267;-54
2022/09/01 11:34:30;;;;;;;0.90;0.90;;;;;;;37.38;29.88;94893.88;5136110;27;20751;-54
2022/09/01 11:37:01;;;;;;;1.30;0.60;;;;;;;37.47;30.18;94888.41;5136662;27;20254;-56
2022/09/01 11:39:39;;;;;;;1.75;0.82;;;;;;;37.28;30.63;94881.22;5136507;27;20235;-54
2022/09/01 11:42:13;;;;;;;0.88;0.88;;;;;;;36.28;31.10;94883.16;5136353;27;20255;-56
2022/09/01 11:44:49;;;;;;;0.45;0.45;;;;;;;34.66;33.69;94878.97;5136147;27;20191;-55
2022/09/01 11:47:20;;;;;;;0.60;0.60;;;;;;;34.31;35.19;94877.88;5136145;27;20182;-56
2022/09/01 11:49:52;;;;;;;0.60;0.40;;;;;;;33.66;36.40;94875.13;5135962;27;20211;-56
2022/09/01 11:52:25;;;;;;;0.73;0.70;;;;;;;33.49;37.34;94879.03;5135891;27;20221;-55
2022/09/01 11:54:54;;;;;;;1.37;1.30;;;;;;;34.55;35.75;94870.22;5135669;27;20416;-55
2022/09/01 11:57:26;;;;;;;0.50;0.50;;;;;;;35.11;34.59;94816.34;5135757;27;20723;-55
2022/09/01 11:59:56;;;;;;;1.60;0.70;;;;;;;35.08;34.79;94862.06;5134941;27;20225;-54
2022/09/01 12:02:28;;;;;;;0.73;0.60;;;;;;;35.46;34.24;94855.81;5135829;27;20235;-55
2022/09/01 12:04:57;;;;;;;0.87;0.83;;;;;;;35.40;33.85;94852.06;5135738;27;20780;-55
2022/09/01 12:07:35;;;;;;;1.13;1.13;;;;;;;35.49;33.43;94852.97;5135762;27;20234;-55
2022/09/01 12:10:13;;;;;;;0.80;0.80;;;;;;;36.15;33.54;94843.78;5135960;27;20209;-55